Columbus Municipal Airport Columbus US
ICAO: KBAK
IATA: CLU
Category: Medium
Scheduled Services: No

Elevation: 656 ft
TransAlt. 18000 ft.

Airport Communications:
INDIANAPOLIS APP/DEP:134.85
AWOS 3:119.75
CLNC DEL:121.6
CTAF:118.6
GND:121.6
TERRE HAUTE RDO:112
TWR:118.6
UNICOM:122.95

KBAK Zoom In..

Runways:

(A) RW 05 length 6401 ft width 150 ft
---- / hdg 48

(B) RW 14 length 5001 ft width 100 ft
---- / hdg 138

(C) RW 23 length 6401 ft width 150 ft
ILS 110.70 / hdg 228

(D) RW 32 length 5001 ft width 100 ft
---- / hdg 318

Location; KBAK
Day. 24 / Time. 01.59 Zulu
* Altimeter: 30.16
* Temperature: 20° c. 68°f.
* Wind from: 000° Speed 00 kn.
Dewpoint: 13° c.
Visibility: 10 Statute Miles.
Clouds: Broken 2000 ft.

KBAK 240159Z 00000KT 10SM BKN200 20/13 A3016 RMK LAST


Wind - Calm.

 
 
jpsmedia.com for Web Design SOUNDCLOUD worldairports.se 2018   terms of use